TimeEDT,TemperatureF,Dew PointF,Humidity,Sea Level PressureIn,VisibilityMPH,Wind Direction,Wind SpeedMPH,Gust SpeedMPH,PrecipitationIn,Events,Conditions,WindDirDegrees,DateUTC
12:17 AM,27.7,19.4,71,30.19,10.0,Calm,Calm,-,N/A,,Clear,0,2013-04-06 04:17:00
12:37 AM,27.1,18.3,69,30.19,10.0,Calm,Calm,-,N/A,,Clear,0,2013-04-06 04:37:00
12:57 AM,26.4,18.7,73,30.19,10.0,Calm,Calm,-,N/A,,Clear,0,2013-04-06 04:57:00
1:17 AM,26.2,18.1,71,30.19,10.0,Calm,Calm,-,N/A,,Clear,0,2013-04-06 05:17:00
1:36 AM,26.6,16.9,67,30.20,10.0,Calm,Calm,-,N/A,,Clear,0,2013-04-06 05:36:00
1:57 AM,26.1,17.1,69,30.20,10.0,Calm,Calm,-,N/A,,Clear,0,2013-04-06 05:57:00
2:17 AM,26.1,16.3,67,30.20,10.0,Calm,Calm,-,N/A,,Clear,0,2013-04-06 06:17:00
2:37 AM,25.0,16.3,70,30.19,10.0,Calm,Calm,-,N/A,,Clear,0,2013-04-06 06:37:00
2:56 AM,24.6,16.0,70,30.19,10.0,Calm,Calm,-,N/A,,Clear,0,2013-04-06 06:56:00
3:17 AM,25.3,14.9,65,30.20,10.0,Calm,Calm,-,N/A,,Clear,0,2013-04-06 07:17:00
3:36 AM,24.6,14.0,64,30.20,10.0,Calm,Calm,-,N/A,,Clear,0,2013-04-06 07:36:00
3:57 AM,24.1,14.5,67,30.21,10.0,Calm,Calm,-,N/A,,Clear,0,2013-04-06 07:57:00
4:17 AM,22.8,17.4,80,30.21,10.0,Calm,Calm,-,N/A,,Clear,0,2013-04-06 08:17:00
4:36 AM,22.6,14.9,72,30.21,10.0,Calm,Calm,-,N/A,,Clear,0,2013-04-06 08:36:00
4:57 AM,21.7,15.4,77,30.21,10.0,NE,3.5,-,N/A,,Clear,50,2013-04-06 08:57:00
5:17 AM,22.8,15.8,74,30.21,10.0,Calm,Calm,-,N/A,,Clear,0,2013-04-06 09:17:00
5:36 AM,24.3,15.6,70,30.22,10.0,Calm,Calm,-,N/A,,Clear,0,2013-04-06 09:36:00
5:57 AM,25.2,14.4,64,30.22,10.0,Calm,Calm,-,N/A,,Scattered Clouds,0,2013-04-06 09:57:00
6:17 AM,24.4,15.4,69,30.22,10.0,Calm,Calm,-,N/A,,Overcast,0,2013-04-06 10:17:00
6:36 AM,24.8,19.4,80,30.23,10.0,Calm,Calm,-,N/A,,Overcast,0,2013-04-06 10:36:00
6:57 AM,25.5,20.3,81,30.24,10.0,Calm,Calm,-,N/A,,Overcast,0,2013-04-06 10:57:00
7:17 AM,26.4,19.4,75,30.24,10.0,Calm,Calm,-,N/A,,Overcast,0,2013-04-06 11:17:00
7:37 AM,26.4,16.9,67,30.25,10.0,Calm,Calm,-,N/A,,Mostly Cloudy,0,2013-04-06 11:37:00
7:56 AM,26.6,18.0,70,30.25,10.0,Calm,Calm,-,N/A,,Scattered Clouds,0,2013-04-06 11:56:00
8:17 AM,29.1,17.8,63,30.25,10.0,East,4.6,-,N/A,,Mostly Cloudy,100,2013-04-06 12:17:00
8:37 AM,30.6,18.3,60,30.25,10.0,East,4.6,-,N/A,,Overcast,100,2013-04-06 12:37:00
8:56 AM,30.9,18.1,59,30.25,10.0,ESE,6.9,-,N/A,,Overcast,110,2013-04-06 12:56:00
9:17 AM,31.8,18.5,58,30.26,10.0,East,4.6,-,N/A,,Overcast,100,2013-04-06 13:17:00
9:36 AM,32.4,16.5,52,30.25,10.0,ESE,5.8,-,N/A,,Overcast,110,2013-04-06 13:36:00
9:57 AM,33.4,14.5,46,30.25,10.0,ESE,6.9,-,N/A,,Overcast,110,2013-04-06 13:57:00
10:17 AM,33.6,13.3,43,30.25,10.0,East,9.2,-,N/A,,Overcast,100,2013-04-06 14:17:00
10:37 AM,33.8,15.8,48,30.25,10.0,ESE,6.9,-,N/A,,Overcast,110,2013-04-06 14:37:00
10:57 AM,35.2,16.3,46,30.26,10.0,ESE,8.1,-,N/A,,Overcast,120,2013-04-06 14:57:00
11:17 AM,37.0,15.6,42,30.25,10.0,SE,9.2,-,N/A,,Overcast,140,2013-04-06 15:17:00
11:37 AM,39.6,14.4,36,30.25,10.0,SE,8.1,-,N/A,,Mostly Cloudy,140,2013-04-06 15:37:00
11:56 AM,40.3,13.6,34,30.25,10.0,SSE,6.9,-,N/A,,Scattered Clouds,160,2013-04-06 15:56:00
12:17 PM,41.7,12.2,30,30.23,10.0,SE,11.5,-,N/A,,Scattered Clouds,130,2013-04-06 16:17:00
12:37 PM,44.1,14.4,30,30.22,10.0,SE,10.4,-,N/A,,Scattered Clouds,130,2013-04-06 16:37:00
12:56 PM,44.6,13.1,28,30.21,10.0,SSE,6.9,17.3,N/A,,Scattered Clouds,160,2013-04-06 16:56:00
1:17 PM,46.0,13.3,27,30.19,10.0,SE,8.1,-,N/A,,Scattered Clouds,140,2013-04-06 17:17:00
1:36 PM,47.1,11.8,24,30.18,10.0,SSE,6.9,-,N/A,,Scattered Clouds,150,2013-04-06 17:36:00
1:57 PM,48.0,10.0,22,30.17,10.0,South,9.2,-,N/A,,Clear,170,2013-04-06 17:57:00
2:17 PM,49.6,12.9,23,30.16,10.0,SSE,6.9,-,N/A,,Clear,150,2013-04-06 18:17:00
2:37 PM,50.2,10.6,20,30.15,10.0,South,8.1,-,N/A,,Clear,170,2013-04-06 18:37:00
2:57 PM,50.4,11.8,21,30.15,10.0,SSE,6.9,-,N/A,,Clear,150,2013-04-06 18:57:00
3:17 PM,51.6,13.1,22,30.13,10.0,SE,5.8,-,N/A,,Clear,140,2013-04-06 19:17:00
3:37 PM,52.5,12.7,21,30.12,10.0,SSE,9.2,-,N/A,,Clear,150,2013-04-06 19:37:00
3:56 PM,53.2,10.9,18,30.11,10.0,SSE,6.9,-,N/A,,Clear,150,2013-04-06 19:56:00
4:17 PM,53.4,9.5,17,30.10,10.0,South,9.2,-,N/A,,Clear,170,2013-04-06 20:17:00
4:37 PM,53.4,9.5,17,30.10,10.0,SSE,8.1,-,N/A,,Clear,150,2013-04-06 20:37:00
4:56 PM,54.1,10.4,17,30.09,10.0,SE,8.1,-,N/A,,Clear,140,2013-04-06 20:56:00
5:17 PM,54.5,8.2,16,30.08,10.0,South,5.8,-,N/A,,Clear,190,2013-04-06 21:17:00
5:37 PM,55.2,10.6,17,30.08,10.0,South,9.2,16.1,N/A,,Clear,180,2013-04-06 21:37:00
5:57 PM,54.7,9.9,17,30.08,10.0,South,5.8,-,N/A,,Clear,170,2013-04-06 21:57:00
6:17 PM,54.1,9.3,17,30.07,10.0,SSE,8.1,-,N/A,,Mostly Cloudy,160,2013-04-06 22:17:00
6:37 PM,54.0,9.9,17,30.06,10.0,SE,10.4,-,N/A,,Mostly Cloudy,140,2013-04-06 22:37:00
6:56 PM,54.3,9.9,17,30.04,10.0,SE,9.2,-,N/A,,Mostly Cloudy,140,2013-04-06 22:56:00
7:17 PM,54.3,9.3,17,30.03,10.0,SE,6.9,16.1,N/A,,Scattered Clouds,140,2013-04-06 23:17:00
7:37 PM,53.4,11.8,19,30.03,10.0,SE,5.8,-,N/A,,Clear,130,2013-04-06 23:37:00
7:56 PM,52.9,11.7,19,30.02,10.0,SE,6.9,-,N/A,,Clear,130,2013-04-06 23:56:00
8:17 PM,52.3,11.8,20,30.02,10.0,SE,4.6,-,N/A,,Clear,130,2013-04-07 00:17:00
8:37 PM,51.6,11.8,20,30.01,10.0,SE,6.9,-,N/A,,Clear,130,2013-04-07 00:37:00
8:56 PM,50.9,13.3,22,30.00,10.0,SE,6.9,-,N/A,,Clear,130,2013-04-07 00:56:00
9:17 PM,51.3,12.4,21,30.00,10.0,SE,6.9,-,N/A,,Clear,130,2013-04-07 01:17:00
9:37 PM,50.9,12.9,22,30.00,10.0,SE,5.8,-,N/A,,Clear,130,2013-04-07 01:37:00
9:57 PM,50.9,12.6,22,29.99,10.0,SE,5.8,-,N/A,,Clear,130,2013-04-07 01:57:00
10:17 PM,50.9,12.4,21,29.98,10.0,SE,8.1,-,N/A,,Clear,130,2013-04-07 02:17:00
10:37 PM,50.9,12.0,21,29.97,10.0,SE,6.9,-,N/A,,Scattered Clouds,140,2013-04-07 02:37:00
10:56 PM,50.9,12.6,22,29.96,10.0,SE,9.2,-,N/A,,Scattered Clouds,130,2013-04-07 02:56:00
11:17 PM,51.1,12.4,21,29.96,10.0,SE,6.9,-,N/A,,Mostly Cloudy,130,2013-04-07 03:17:00
11:37 PM,50.9,12.7,22,29.94,10.0,SE,8.1,-,N/A,,Mostly Cloudy,130,2013-04-07 03:37:00
11:56 PM,50.5,12.2,22,29.94,10.0,SE,8.1,-,N/A,,Scattered Clouds,140,2013-04-07 03:56:00